• Join FlightAware (Why Join?)
  • Login
  • US Flag 
01:48AM EST


 

Airport Tracker/Info


-or-


 

Live Flight TrackerFlight Track Log ✈ UAL1432 ✈ 03-Jul-2014 ✈ KDCA - KIAH

Flight Track Log - Related Links

Times and Time Zones

All times are in EDT time to prevent confusion due to time zone crossing. See the UAL1432 flight status page for this flight to view local times or setup timezone preferences in your user account.

Time Position Orientation Groundspeed Altitude Reporting Facility
EDT Latitude Longitude Course Direction KTS MPH feet Rate Location/Type
07:04AM 38.8167 -77.0333 237° Southwest 170 196 1,500  Level Potomac TRACON
07:06AM 38.7328 -77.1219 219° Southwest 207 238 6,900 3,060 Climbing Washington Center
07:07AM 38.6084 -77.4915 247° West  Level FlightAware Approximate
07:07AM 38.7003 -77.2064 244° Southwest 234 269 10,500  Level Washington Center
07:08AM 38.5590 -77.6153 237° Southwest  Level FlightAware Approximate
07:08AM 38.6614 -77.3092 244° Southwest 269 310 13,000  Level Washington Center
07:09AM 38.4945 -77.7276 237° Southwest  Level FlightAware Approximate
07:09AM 38.6222 -77.4200 246° West 314 361 15,100  Level Washington Center
07:10AM 38.5767 -77.5408 244° Southwest 358 412 17,600 2,520 Climbing Washington Center
07:11AM 38.5286 -77.6697 245° Southwest 385 443 20,300 2,280 Climbing Washington Center
07:12AM 38.4719 -77.7956 240° Southwest 399 459 22,200 1,860 Climbing Washington Center
07:13AM 38.4072 -77.9206 237° Southwest 417 480 24,100 1,380 Climbing Washington Center
07:14AM 38.3378 -78.0483 235° Southwest 428 493 25,100 1,440 Climbing Washington Center
07:15AM 38.2769 -78.1653 236° Southwest 426 490 27,000 1,500 Climbing Washington Center
07:16AM 38.2161 -78.2794 236° Southwest 409 471 28,100 960 Climbing Washington Center
07:17AM 38.1614 -78.3964 239° Southwest 392 451 29,000 540 Climbing Washington Center
07:18AM 38.1233 -78.5031 246° West 397 457 29,200 960 Climbing Washington Center
07:19AM 38.0717 -78.6542 247° West 414 476 31,000 1,800 Climbing Washington Center
07:20AM 38.0200 -78.7917 245° Southwest 429 494 32,800 1,620 Climbing Washington Center
07:21AM 37.9706 -78.9292 246° West 434 499 34,200 1,380 Climbing Washington Center
07:22AM 37.9186 -79.0664 244° Southwest 434 499 35,600 1,740 Climbing Washington Center
07:23AM 37.8539 -79.2081 240° Southwest 434 499 37,800 1,140 Climbing Washington Center
07:24AM 37.7939 -79.3289 238° Southwest 423 487 38,000 60 Climbing Washington Center
07:25AM 37.7378 -79.4519 240° Southwest 411 473 38,000 300 Level Washington Center
07:26AM 37.6733 -79.5722 236° Southwest 411 473 38,700 720 Climbing Washington Center
07:27AM 37.6131 -79.6922 238° Southwest 416 479 39,500 600 Climbing Washington Center
07:28AM 37.5547 -79.8122 239° Southwest 416 479 40,000 180 Climbing Washington Center
07:29AM 37.4539 -80.0133 238° Southwest 431 496 40,000  Level Atlanta Center
07:30AM 37.3992 -80.1231 238° Southwest 421 484 40,000  Level Atlanta Center
07:31AM 37.3383 -80.2436 238° Southwest 421 484 40,000  Level Atlanta Center
07:32AM 37.2772 -80.3639 237° Southwest 421 484 40,000  Level Atlanta Center
07:33AM 37.2183 -80.4814 238° Southwest 421 484 40,000  Level Atlanta Center
07:34AM 37.1569 -80.6014 237° Southwest 416 479 40,000  Level Atlanta Center
07:35AM 37.0997 -80.7183 238° Southwest 416 479 40,000  Level Atlanta Center
07:36AM 37.0383 -80.8353 237° Southwest 416 479 40,000  Level Atlanta Center
07:37AM 36.9789 -80.9547 238° Southwest 416 479 40,000  Level Atlanta Center
07:38AM 36.9169 -81.0686 236° Southwest 411 473 40,000  Level Atlanta Center
07:39AM 36.8592 -81.1850 238° Southwest 406 467 40,000  Level Atlanta Center
07:40AM 36.7994 -81.3011 237° Southwest 406 467 40,000  Level Atlanta Center
07:41AM 36.7394 -81.4225 238° Southwest 399 459 40,000  Level Atlanta Center
07:42AM 36.6794 -81.5408 238° Southwest 399 459 40,000  Level Atlanta Center
07:43AM 36.6169 -81.6592 237° Southwest 399 459 40,000  Level Atlanta Center
07:44AM 36.5567 -81.7747 237° Southwest 407 468 40,000  Level Atlanta Center
07:45AM 36.4983 -81.8925 238° Southwest 407 468 40,000  Level Atlanta Center
07:46AM 36.4336 -82.0078 235° Southwest 407 468 40,000  Level Atlanta Center
07:47AM 36.3708 -82.1256 237° Southwest 407 468 40,000  Level Atlanta Center
07:48AM 36.3058 -82.2431 236° Southwest 407 468 40,000  Level Atlanta Center
07:49AM 36.2469 -82.3603 238° Southwest 407 468 40,000  Level Atlanta Center
07:50AM 36.1839 -82.4747 236° Southwest 413 475 40,000  Level Atlanta Center
07:51AM 36.1228 -82.5889 236° Southwest 413 475 40,000  Level Atlanta Center
07:52AM 36.0614 -82.7081 238° Southwest 413 475 40,000  Level Atlanta Center
07:53AM 36.0042 -82.8119 236° Southwest 413 475 40,000  Level Atlanta Center
07:54AM 35.9428 -82.9256 236° Southwest 413 475 40,000  Level Atlanta Center
07:55AM 35.8789 -83.0419 236° Southwest 413 475 40,000  Level Atlanta Center
07:56AM 35.8258 -83.1653 242° Southwest 413 475 40,000  Level Atlanta Center
07:57AM 35.7722 -83.2992 244° Southwest 408 470 40,000  Level Atlanta Center
07:58AM 35.7189 -83.4222 242° Southwest 408 470 40,000  Level Atlanta Center
07:59AM 35.6650 -83.5428 241° Southwest 408 470 40,000  Level Atlanta Center
08:00AM 35.6133 -83.6633 242° Southwest 408 470 40,000  Level Atlanta Center
08:01AM 35.5594 -83.7886 242° Southwest 413 475 40,000  Level Atlanta Center
08:02AM 35.5075 -83.9111 243° Southwest 413 475 40,000  Level Atlanta Center
08:03AM 35.4533 -84.0311 241° Southwest 413 475 40,000  Level Atlanta Center
08:04AM 35.3989 -84.1508 241° Southwest 413 475 40,000  Level Atlanta Center
08:05AM 35.3592 -84.2833 250° West 413 475 40,000  Level Atlanta Center
08:06AM 35.3275 -84.4181 254° West 413 475 40,000  Level Atlanta Center
08:07AM 35.2958 -84.5528 254° West 413 475 40,000  Level Atlanta Center
08:08AM 35.2658 -84.6900 255° West 413 475 40,000  Level Atlanta Center
08:09AM 35.2131 -84.8117 242° Southwest 418 481 40,000  Level Atlanta Center
08:10AM 35.1581 -84.9331 241° Southwest 413 475 40,000  Level Atlanta Center
08:11AM 35.1008 -85.0542 240° Southwest 407 468 40,000  Level Atlanta Center
08:12AM 35.0517 -85.1603 241° Southwest 412 474 40,000  Level Atlanta Center
08:13AM 34.9964 -85.2811 241° Southwest 412 474 40,000  Level Atlanta Center
08:14AM 34.9408 -85.3994 240° Southwest 412 474 40,000  Level Atlanta Center
08:15AM 34.8831 -85.5200 240° Southwest 412 474 40,000  Level Atlanta Center
08:16AM 34.8544 -85.5828 241° Southwest 408 470 40,000  Level Memphis Center
08:17AM 34.7981 -85.7031 240° Southwest 408 470 40,000  Level Memphis Center
08:18AM 34.7411 -85.8231 240° Southwest 408 470 40,000  Level Memphis Center
08:19AM 34.6836 -85.9442 240° Southwest 408 470 40,000  Level Memphis Center
08:20AM 34.6261 -86.0653 240° Southwest 409 471 40,000  Level Memphis Center
08:21AM 34.5678 -86.1856 240° Southwest 410 472 40,000  Level Memphis Center
08:22AM 34.5103 -86.3047 240° Southwest 410 472 40,000  Level Memphis Center
08:23AM 34.4406 -86.4500 240° Southwest 411 473 40,000  Level Memphis Center
08:24AM 34.3811 -86.5703 239° Southwest 412 474 40,000  Level Memphis Center
08:25AM 34.3231 -86.6903 240° Southwest 412 474 40,000 -300 Level Memphis Center
08:26AM 34.2642 -86.8103 239° Southwest 412 474 39,400 -780 Descending Memphis Center
08:27AM 34.2050 -86.9317 240° Southwest 414 476 38,500 -720 Descending Memphis Center
08:28AM 34.1442 -87.0533 239° Southwest 416 479 38,000 -300 Descending Memphis Center
08:29AM 34.0842 -87.1756 239° Southwest 418 481 38,000  Level Memphis Center
08:30AM 34.0242 -87.2981 239° Southwest 419 482 38,000  Level Memphis Center
08:31AM 33.9633 -87.4194 239° Southwest 419 482 38,000  Level Memphis Center
08:32AM 33.9039 -87.5394 239° Southwest 419 482 38,000  Level Memphis Center
08:33AM 33.8444 -87.6611 240° Southwest 418 481 38,000  Level Memphis Center
08:34AM 33.7697 -87.8078 239° Southwest 421 484 38,000  Level Memphis Center
08:35AM 33.7086 -87.9314 239° Southwest 425 489 38,000  Level Memphis Center
08:36AM 33.6458 -88.0542 238° Southwest 427 491 38,000  Level Memphis Center
08:37AM 33.5836 -88.1758 238° Southwest 428 493 38,000  Level Memphis Center
08:38AM 33.5225 -88.2961 239° Southwest 428 493 38,000  Level Memphis Center
08:40AM 33.4608 -88.4167 239° Southwest 428 493 38,000  Level Memphis Center
08:41AM 33.4000 -88.5378 239° Southwest 428 493 38,000  Level Memphis Center
08:42AM 33.3264 -88.6803 238° Southwest 427 491 38,000  Level Memphis Center
08:43AM 33.2650 -88.7994 238° Southwest 426 490 38,000  Level Memphis Center
08:44AM 33.2025 -88.9194 238° Southwest 426 490 38,000  Level Memphis Center
08:45AM 33.1411 -89.0406 239° Southwest 426 490 38,000  Level Memphis Center
08:46AM 33.0781 -89.1614 238° Southwest 429 494 38,000  Level Memphis Center
08:47AM 33.0139 -89.2825 238° Southwest 429 494 38,000  Level Memphis Center
08:48AM 32.9378 -89.4283 238° Southwest 430 495 38,000  Level Memphis Center
08:49AM 32.8731 -89.5492 237° Southwest 430 495 38,000  Level Memphis Center
08:50AM 32.8067 -89.6711 237° Southwest 431 496 38,000  Level Memphis Center
08:51AM 32.7411 -89.7975 238° Southwest 437 503 38,000  Level Memphis Center
08:52AM 32.6758 -89.9219 238° Southwest 438 504 38,000  Level Memphis Center
08:53AM 32.6111 -90.0444 238° Southwest 439 505 38,000  Level Memphis Center
08:54AM 32.5467 -90.1653 238° Southwest 438 504 38,000  Level Memphis Center
08:55AM 32.4811 -90.2861 237° Southwest 438 504 38,000  Level Memphis Center
08:56AM 32.4039 -90.4311 238° Southwest 438 504 38,000  Level Memphis Center
08:57AM 32.3386 -90.5525 238° Southwest 438 504 38,000  Level Memphis Center
08:58AM 32.2728 -90.6719 237° Southwest 438 504 38,000  Level Memphis Center
08:59AM 32.2075 -90.7939 238° Southwest 438 504 38,000  Level Memphis Center
09:00AM 32.1272 -90.9394 237° Southwest 440 506 38,000  Level Memphis Center
09:01AM 32.0614 -91.0606 237° Southwest 441 507 38,000  Level Memphis Center
09:02AM 31.9942 -91.1825 237° Southwest 441 507 38,000  Level Memphis Center
09:03AM 31.9281 -91.3033 237° Southwest 442 509 38,000  Level Memphis Center
09:04AM 31.8692 -91.4100 237° Southwest 444 511 38,000 -60 Level Houston Center
09:05AM 31.8022 -91.5319 237° Southwest 444 511 37,900 -540 Descending Houston Center
09:06AM 31.7342 -91.6531 237° Southwest 444 511 37,000 -480 Descending Houston Center
09:07AM 31.6522 -91.7997 237° Southwest 446 513 37,000  Level Houston Center
09:08AM 31.5842 -91.9206 237° Southwest 446 513 37,000  Level Houston Center
09:09AM 31.5144 -92.0472 237° Southwest 446 513 37,000  Level Houston Center
09:10AM 31.4447 -92.1681 236° Southwest 446 513 37,000 -60 Level Houston Center
09:11AM 31.3758 -92.2903 237° Southwest 447 514 36,900  Descending Houston Center
09:12AM 31.3061 -92.4147 237° Southwest 455 524 37,000  Climbing Houston Center
09:13AM 31.2383 -92.5392 238° Southwest 455 524 37,000 -60 Level Houston Center
09:14AM 31.1697 -92.6981 243° Southwest 456 525 36,900  Descending Houston Center
09:15AM 31.1125 -92.8297 243° Southwest 456 525 37,000  Climbing Houston Center
09:17AM 31.0542 -92.9625 243° Southwest 456 525 37,000  Level Houston Center
09:18AM 30.9956 -93.0936 242° Southwest 457 526 37,000  Level Houston Center
09:19AM 30.9381 -93.2239 243° Southwest 457 526 37,000  Level Houston Center
09:20AM 30.8672 -93.3800 242° Southwest 457 526 37,000  Level Houston Center
09:21AM 30.8075 -93.5106 242° Southwest 458 527 37,000 -120 Level Houston Center
09:22AM 30.7483 -93.6433 243° Southwest 463 533 36,800 -1,500 Descending Houston Center
09:23AM 30.6903 -93.7739 243° Southwest 462 532 33,900 -3,120 Descending Houston Center
09:25AM 30.5569 -94.0658 242° Southwest 469 540 27,300 -3,000 Descending Houston Center
09:25AM 30.5467 -94.0856 239° Southwest 465 535 27,100 -2,040 Descending Houston Center
09:26AM 30.5011 -94.1847 242° Southwest 430 495 25,200 -2,400 Descending Houston Center
09:26AM 30.4725 -94.2483 242° Southwest 414 476 24,000 -2,340 Descending Houston Center
09:27AM 30.4472 -94.3036 242° Southwest 424 488 22,800 -2,640 Descending Houston Center
09:27AM 30.4156 -94.3722 242° Southwest 416 479 21,300 -2,340 Descending Houston Center
09:28AM 30.3936 -94.4203 242° Southwest 414 476 20,400 -2,220 Descending Houston Center
09:28AM 30.3661 -94.4903 246° West 389 448 19,100 -2,040 Descending Houston Center
09:29AM 30.3467 -94.5353 243° Southwest 392 451 18,300 -1,920 Descending Houston Center
09:29AM 30.3203 -94.6003 245° Southwest 377 434 17,200 -1,980 Descending Houston Center
09:30AM 30.3019 -94.6439 244° Southwest 379 436 16,300 -2,220 Descending Houston Center
09:30AM 30.2792 -94.6978 244° Southwest 369 425 15,200 -2,040 Descending Houston Center
09:31AM 30.2508 -94.7697 246° West 364 419 14,200 -1,200 Descending Houston Center
09:31AM 30.2386 -94.7997 245° Southwest 340 391 14,000 -1,080 Descending Houston Center
09:32AM 30.2125 -94.8633 245° Southwest 325 374 13,100 -1,440 Descending Houston Center
09:32AM 30.1958 -94.9042 245° Southwest 313 360 12,400 -1,500 Descending Houston Center
09:33AM 30.1764 -94.9522 245° Southwest 310 357 11,600 -1,500 Descending Houston Center
09:33AM 30.1603 -94.9933 246° West 302 348 10,900 -1,380 Descending Houston Center
09:34AM 30.1411 -95.0381 244° Southwest 301 346 10,200 -1,200 Descending Houston Center
09:34AM 30.1264 -95.0797 248° West 290 334 9,700 -1,200 Descending Houston Center
09:35AM 30.1183 -95.1250 258° West 285 328 9,000 -1,380 Descending Houston Center
09:35AM 30.1117 -95.1708 260° West 276 318 8,300 -1,260 Descending Houston Center
09:36AM 30.1044 -95.2106 258° West 279 321 7,700 -1,320 Descending Houston Center
09:36AM 30.0967 -95.2572 259° West 274 315 7,000 -1,260 Descending Houston Center
09:37AM 30.0914 -95.3142 264° West 277 319 6,400 -900 Descending Houston Center
09:38AM 30.0919 -95.3447 271° West 257 296 6,100 -420 Descending Houston Center
09:38AM 30.0919 -95.3928 270° West 255 293 6,000 -540 Descending Houston Center
09:39AM 30.0906 -95.4197 267° West 234 269 5,600 -1,440 Descending Houston Center
09:39AM 30.0786 -95.4642 253° West 235 270 4,500 -1,920 Descending Houston Center
09:40AM 30.0675 -95.4900 244° Southwest 216 249 3,700 -1,680 Descending Houston Center
09:40AM 30.0417 -95.5150 220° Southwest 219 252 2,800 -1,440 Descending Houston Center
09:40AM 30.0253 -95.5119 171° South 197 227 2,400 -780 Descending Houston Center
09:41AM 30.0081 -95.4725 117° Southeast 195 224 2,000 -780 Descending Houston Center
09:41AM 30.0053 -95.4542 100° East 183 211 1,600 -1,080 Descending Houston Center
09:42AM 30.0069 -95.4083 88° East 177 204 900 -600 Descending Houston Center
09:43AM 30.0081 -95.3664 88° East 165 190 500 -420 Descending Houston Center